Time;durP1;ratioP1;P1;durP2;ratioP2;P2;SDS_P1;SDS_P2;PMS_P1;PMS_P2;Temp;Humidity;BMP_temperature;BMP_pressure;BME280_temperature;BME280_humidity;BME280_pressure;Samples;Min_cycle;Max_cycle;Signal;HPM_P1;HPM_P2
2021/07/16 00:00:16;;;;;;;18.50;10.60;;;;;;;;;;5077700;28;20918;-72
2021/07/16 00:02:43;;;;;;;16.20;9.70;;;;;;;;;;5077717;28;20433;-71
2021/07/16 00:05:09;;;;;;;15.10;9.00;;;;;;;;;;5078996;28;20450;-70
2021/07/16 00:07:36;;;;;;;16.13;8.17;;;;;;;;;;5078631;28;20422;-71
2021/07/16 00:10:02;;;;;;;11.50;8.40;;;;;;;;;;5077956;28;20494;-69
2021/07/16 00:12:28;;;;;;;15.90;9.97;;;;;;;;;;5079137;28;20465;-73
2021/07/16 00:14:55;;;;;;;15.67;8.30;;;;;;;;;;5079077;28;20424;-74
2021/07/16 00:17:21;;;;;;;13.13;8.70;;;;;;;;;;5078688;28;20417;-74
2021/07/16 00:19:47;;;;;;;14.60;8.30;;;;;;;;;;5079021;28;20419;-71
2021/07/16 00:22:13;;;;;;;14.00;8.47;;;;;;;;;;5095782;28;20519;-71
2021/07/16 00:24:39;;;;;;;17.63;9.20;;;;;;;;;;5097571;28;20492;-72
2021/07/16 00:27:05;;;;;;;17.00;8.00;;;;;;;;;;5095754;28;20505;-73
2021/07/16 00:29:31;;;;;;;12.73;8.13;;;;;;;;;;5081566;28;20414;-74
2021/07/16 00:31:57;;;;;;;10.23;7.73;;;;;;;;;;5075660;28;20472;-72
2021/07/16 00:34:23;;;;;;;14.23;7.63;;;;;;;;;;5075517;28;20406;-70
2021/07/16 00:36:49;;;;;;;12.30;7.50;;;;;;;;;;5075185;28;20419;-74
2021/07/16 00:39:15;;;;;;;10.37;7.10;;;;;;;;;;5075672;28;20496;-71
2021/07/16 00:41:41;;;;;;;12.30;7.77;;;;;;;;;;5075514;28;20986;-72
2021/07/16 00:44:07;;;;;;;19.23;9.40;;;;;;;;;;5075607;28;20491;-74
2021/07/16 00:46:33;;;;;;;13.20;7.63;;;;;;;;;;5075363;28;20413;-75
2021/07/16 00:48:59;;;;;;;13.43;8.17;;;;;;;;;;5075655;28;20403;-74
2021/07/16 00:51:25;;;;;;;15.30;8.10;;;;;;;;;;5075728;28;20430;-74
2021/07/16 00:53:52;;;;;;;18.63;7.67;;;;;;;;;;5075238;28;20458;-71
2021/07/16 00:56:18;;;;;;;14.03;7.13;;;;;;;;;;5077821;28;20417;-72
2021/07/16 00:58:44;;;;;;;14.23;7.10;;;;;;;;;;5075082;28;20829;-71
2021/07/16 01:01:10;;;;;;;12.70;7.90;;;;;;;;;;5075052;28;20922;-71
2021/07/16 01:03:36;;;;;;;11.90;7.47;;;;;;;;;;5074908;28;20470;-73
2021/07/16 01:06:02;;;;;;;16.33;7.80;;;;;;;;;;5075136;28;20430;-73
2021/07/16 01:08:29;;;;;;;11.10;6.63;;;;;;;;;;5074821;28;20413;-71
2021/07/16 01:10:55;;;;;;;11.13;6.80;;;;;;;;;;5078896;28;20433;-74
2021/07/16 01:13:22;;;;;;;16.37;7.50;;;;;;;;;;5094882;28;20449;-74
2021/07/16 01:15:48;;;;;;;13.93;7.67;;;;;;;;;;5095148;28;20414;-71
2021/07/16 01:18:14;;;;;;;9.07;6.53;;;;;;;;;;5094857;28;20414;-71
2021/07/16 01:20:40;;;;;;;12.27;7.13;;;;;;;;;;5094864;28;20424;-70
2021/07/16 01:23:16;;;;;;;11.47;7.20;;;;;;;;;;5094895;28;20774;-71
2021/07/16 01:25:42;;;;;;;16.60;7.10;;;;;;;;;;5094750;28;20413;-73
2021/07/16 01:28:08;;;;;;;13.37;6.63;;;;;;;;;;5091931;28;20762;-73
2021/07/16 01:30:34;;;;;;;12.23;7.20;;;;;;;;;;5074538;28;20442;-73
2021/07/16 01:33:01;;;;;;;12.13;6.70;;;;;;;;;;5087199;28;20813;-74
2021/07/16 01:35:27;;;;;;;14.83;7.63;;;;;;;;;;5094613;28;20422;-71
2021/07/16 01:37:53;;;;;;;13.73;7.53;;;;;;;;;;5093173;28;20805;-72
2021/07/16 01:40:21;;;;;;;12.30;7.10;;;;;;;;;;5094409;28;20408;-73
2021/07/16 01:42:49;;;;;;;15.00;7.43;;;;;;;;;;5094862;28;20419;-70
2021/07/16 01:45:16;;;;;;;12.13;7.90;;;;;;;;;;5094688;28;20417;-72
2021/07/16 01:47:45;;;;;;;13.03;7.30;;;;;;;;;;5094610;28;20796;-71
2021/07/16 01:50:11;;;;;;;14.20;7.63;;;;;;;;;;5094492;28;20405;-72
2021/07/16 01:52:37;;;;;;;12.83;7.53;;;;;;;;;;5093196;28;20551;-73
2021/07/16 01:55:04;;;;;;;15.57;7.87;;;;;;;;;;5088796;28;20444;-73
2021/07/16 01:57:30;;;;;;;10.63;7.20;;;;;;;;;;5076003;28;20736;-72
2021/07/16 01:59:56;;;;;;;15.17;7.90;;;;;;;;;;5073871;28;20413;-71
2021/07/16 02:02:22;;;;;;;11.77;7.70;;;;;;;;;;5087651;28;20429;-73
2021/07/16 02:04:48;;;;;;;15.00;8.17;;;;;;;;;;5094179;28;20405;-75
2021/07/16 02:07:14;;;;;;;17.10;8.43;;;;;;;;;;5093953;28;20418;-72
2021/07/16 02:09:40;;;;;;;12.30;7.10;;;;;;;;;;5092826;28;20571;-75
2021/07/16 02:12:06;;;;;;;11.70;7.40;;;;;;;;;;5093787;28;20544;-74
2021/07/16 02:14:32;;;;;;;11.13;7.20;;;;;;;;;;5093909;28;20410;-70
2021/07/16 02:17:02;;;;;;;12.50;7.50;;;;;;;;;;5093746;28;20934;-71
2021/07/16 02:19:28;;;;;;;14.83;8.83;;;;;;;;;;5093991;28;20402;-73
2021/07/16 02:21:54;;;;;;;12.77;7.70;;;;;;;;;;5093845;28;20441;-73
2021/07/16 02:24:20;;;;;;;17.20;8.57;;;;;;;;;;5093963;28;20409;-74
2021/07/16 02:26:46;;;;;;;15.90;8.50;;;;;;;;;;5093634;28;20409;-74
2021/07/16 02:29:12;;;;;;;13.80;8.90;;;;;;;;;;5081967;28;20425;-71
2021/07/16 02:31:38;;;;;;;13.60;7.60;;;;;;;;;;5073195;28;20861;-73
2021/07/16 02:34:04;;;;;;;11.03;7.77;;;;;;;;;;5073637;28;20497;-72
2021/07/16 02:36:31;;;;;;;17.13;8.10;;;;;;;;;;5072898;28;20407;-74
2021/07/16 02:38:57;;;;;;;16.87;8.73;;;;;;;;;;5073320;28;20436;-70
2021/07/16 02:41:23;;;;;;;13.33;8.37;;;;;;;;;;5072974;28;20431;-71
2021/07/16 02:43:49;;;;;;;13.03;8.30;;;;;;;;;;5073277;28;20420;-73
2021/07/16 02:46:15;;;;;;;12.93;8.87;;;;;;;;;;5072938;28;20415;-75
2021/07/16 02:48:42;;;;;;;18.37;9.10;;;;;;;;;;5072212;28;20557;-70
2021/07/16 02:51:08;;;;;;;13.07;8.00;;;;;;;;;;5073152;28;20920;-70
2021/07/16 02:53:34;;;;;;;11.73;8.43;;;;;;;;;;5073231;28;20461;-70
2021/07/16 02:56:00;;;;;;;11.57;8.60;;;;;;;;;;5074311;28;20412;-74
2021/07/16 02:58:26;;;;;;;17.07;7.67;;;;;;;;;;5073504;28;20406;-71
2021/07/16 03:00:52;;;;;;;13.27;8.27;;;;;;;;;;5072953;28;20576;-70
2021/07/16 03:03:18;;;;;;;14.83;9.00;;;;;;;;;;5073266;28;20763;-72
2021/07/16 03:05:44;;;;;;;15.73;8.80;;;;;;;;;;5072748;28;20479;-73
2021/07/16 03:08:12;;;;;;;14.97;9.17;;;;;;;;;;5072846;28;20475;-73
2021/07/16 03:10:39;;;;;;;14.53;9.00;;;;;;;;;;5072889;28;20439;-71
2021/07/16 03:13:06;;;;;;;15.07;8.90;;;;;;;;;;5072893;28;20466;-70
2021/07/16 03:15:34;;;;;;;17.67;9.10;;;;;;;;;;5073005;28;20467;-73
2021/07/16 03:18:00;;;;;;;20.83;9.60;;;;;;;;;;5072582;28;20416;-72
2021/07/16 03:20:33;;;;;;;13.97;8.93;;;;;;;;;;5072740;28;20411;-73
2021/07/16 03:23:00;;;;;;;15.03;8.70;;;;;;;;;;5072688;28;20517;-71
2021/07/16 03:25:26;;;;;;;19.93;9.57;;;;;;;;;;5072696;28;20410;-72
2021/07/16 03:27:53;;;;;;;14.80;8.57;;;;;;;;;;5072462;28;20411;-73
2021/07/16 03:30:21;;;;;;;14.23;9.37;;;;;;;;;;5072580;28;20426;-72
2021/07/16 03:32:47;;;;;;;20.20;9.37;;;;;;;;;;5072674;28;20822;-72
2021/07/16 03:35:14;;;;;;;14.30;8.20;;;;;;;;;;5072603;28;20519;-73
2021/07/16 03:37:41;;;;;;;20.23;8.83;;;;;;;;;;5072653;28;20421;-71
2021/07/16 03:40:08;;;;;;;19.50;9.03;;;;;;;;;;5072610;28;20453;-73
2021/07/16 03:42:34;;;;;;;14.50;8.30;;;;;;;;;;5072744;28;20427;-71
2021/07/16 03:45:00;;;;;;;11.20;8.20;;;;;;;;;;5072493;28;20849;-70
2021/07/16 03:47:26;;;;;;;12.50;8.40;;;;;;;;;;5072618;28;20830;-74
2021/07/16 03:49:52;;;;;;;12.60;8.00;;;;;;;;;;5072817;28;20411;-73
2021/07/16 03:52:18;;;;;;;19.00;8.10;;;;;;;;;;5072535;28;20465;-74
2021/07/16 03:54:44;;;;;;;14.63;7.87;;;;;;;;;;5072553;28;20779;-74
2021/07/16 03:57:10;;;;;;;14.17;8.20;;;;;;;;;;5073819;28;20493;-73
2021/07/16 03:59:37;;;;;;;18.30;7.87;;;;;;;;;;5071392;28;20499;-73
2021/07/16 04:02:04;;;;;;;16.40;7.80;;;;;;;;;;5087265;28;20790;-75
2021/07/16 04:04:30;;;;;;;17.13;8.87;;;;;;;;;;5096605;28;20417;-73
2021/07/16 04:06:57;;;;;;;22.50;8.50;;;;;;;;;;5096094;28;20437;-71
2021/07/16 04:09:27;;;;;;;19.23;7.80;;;;;;;;;;5096469;28;20413;-72
2021/07/16 04:12:05;;;;;;;17.07;8.20;;;;;;;;;;5096250;28;20458;-71
2021/07/16 04:14:33;;;;;;;18.60;7.73;;;;;;;;;;5096679;28;20403;-71
2021/07/16 04:16:59;;;;;;;16.37;7.27;;;;;;;;;;5095904;28;20409;-72
2021/07/16 04:19:25;;;;;;;17.87;8.77;;;;;;;;;;5096417;28;20467;-76
2021/07/16 04:21:51;;;;;;;18.77;8.70;;;;;;;;;;5096020;28;20770;-74
2021/07/16 04:24:17;;;;;;;15.60;7.90;;;;;;;;;;5096396;28;20488;-72
2021/07/16 04:26:43;;;;;;;17.23;7.80;;;;;;;;;;5096073;28;20775;-72
2021/07/16 04:29:09;;;;;;;19.80;8.47;;;;;;;;;;5084703;28;20426;-73
2021/07/16 04:31:35;;;;;;;17.60;8.47;;;;;;;;;;5075514;28;20891;-71
2021/07/16 04:34:01;;;;;;;13.97;8.00;;;;;;;;;;5075756;28;20458;-73
2021/07/16 04:36:27;;;;;;;12.67;8.20;;;;;;;;;;5075565;28;20411;-75
2021/07/16 04:38:53;;;;;;;14.37;8.20;;;;;;;;;;5075415;28;20946;-73
2021/07/16 04:41:19;;;;;;;15.87;7.60;;;;;;;;;;5075429;28;20459;-72
2021/07/16 04:43:45;;;;;;;20.37;8.20;;;;;;;;;;5075823;28;20768;-71
2021/07/16 04:46:11;;;;;;;15.30;9.63;;;;;;;;;;5075546;28;20410;-73
2021/07/16 04:48:37;;;;;;;18.40;9.20;;;;;;;;;;5095566;28;20436;-72
2021/07/16 04:51:03;;;;;;;15.47;7.93;;;;;;;;;;5095461;28;20436;-71
2021/07/16 04:53:30;;;;;;;19.10;8.17;;;;;;;;;;5095252;28;20536;-74
2021/07/16 04:55:56;;;;;;;18.17;8.50;;;;;;;;;;5082767;28;20494;-71
2021/07/16 04:58:22;;;;;;;13.30;7.43;;;;;;;;;;5076216;28;20481;-74
2021/07/16 05:00:48;;;;;;;16.00;7.63;;;;;;;;;;5075142;28;20763;-73
2021/07/16 05:03:14;;;;;;;15.37;7.77;;;;;;;;;;5075365;28;20476;-73
2021/07/16 05:05:40;;;;;;;11.43;6.97;;;;;;;;;;5074832;28;20441;-72
2021/07/16 05:08:06;;;;;;;16.53;7.40;;;;;;;;;;5074569;28;20415;-72
2021/07/16 05:10:32;;;;;;;14.90;7.73;;;;;;;;;;5075090;28;20756;-73
2021/07/16 05:12:58;;;;;;;18.77;8.17;;;;;;;;;;5094977;28;20805;-73
2021/07/16 05:15:24;;;;;;;12.50;7.40;;;;;;;;;;5095406;28;20419;-72
2021/07/16 05:17:50;;;;;;;12.13;7.80;;;;;;;;;;5094731;28;20408;-71
2021/07/16 05:20:16;;;;;;;21.67;8.53;;;;;;;;;;5095232;28;20759;-73
2021/07/16 05:22:42;;;;;;;17.33;8.77;;;;;;;;;;5095078;28;20421;-72
2021/07/16 05:25:09;;;;;;;14.23;8.27;;;;;;;;;;5095160;28;20503;-75
2021/07/16 05:27:35;;;;;;;15.30;8.57;;;;;;;;;;5094420;28;20904;-74
2021/07/16 05:30:01;;;;;;;23.80;9.40;;;;;;;;;;5084852;28;20910;-72
2021/07/16 05:32:27;;;;;;;13.23;7.73;;;;;;;;;;5074982;28;20964;-73
2021/07/16 05:34:53;;;;;;;21.00;9.00;;;;;;;;;;5074437;28;20422;-70
2021/07/16 05:37:19;;;;;;;21.57;8.93;;;;;;;;;;5074130;28;20407;-73
2021/07/16 05:39:45;;;;;;;16.40;8.40;;;;;;;;;;5074283;28;20826;-73
2021/07/16 05:42:11;;;;;;;17.20;8.20;;;;;;;;;;5074420;28;20438;-73
2021/07/16 05:44:37;;;;;;;20.33;8.67;;;;;;;;;;5074609;28;20414;-72
2021/07/16 05:47:05;;;;;;;22.50;10.33;;;;;;;;;;5092835;28;20420;-73
2021/07/16 05:49:31;;;;;;;16.43;8.70;;;;;;;;;;5094842;28;20459;-72
2021/07/16 05:51:57;;;;;;;13.43;8.73;;;;;;;;;;5094227;28;20437;-71
2021/07/16 05:54:23;;;;;;;19.57;8.80;;;;;;;;;;5094366;28;20413;-71
2021/07/16 05:56:49;;;;;;;18.50;9.57;;;;;;;;;;5074843;28;20488;-73
2021/07/16 05:59:16;;;;;;;18.37;9.10;;;;;;;;;;5074352;28;20406;-72
2021/07/16 06:01:42;;;;;;;19.70;8.87;;;;;;;;;;5073961;28;20462;-73
2021/07/16 06:04:11;;;;;;;21.70;9.50;;;;;;;;;;5072848;28;20418;-71
2021/07/16 06:06:37;;;;;;;19.00;9.30;;;;;;;;;;5073425;28;20442;-72
2021/07/16 06:09:04;;;;;;;20.00;9.17;;;;;;;;;;5073739;28;20449;-74
2021/07/16 06:11:31;;;;;;;18.73;10.27;;;;;;;;;;5082230;28;20449;-74
2021/07/16 06:13:58;;;;;;;14.20;8.93;;;;;;;;;;5087522;28;20466;-72
2021/07/16 06:16:24;;;;;;;18.87;8.67;;;;;;;;;;5074080;28;20729;-72
2021/07/16 06:18:50;;;;;;;19.10;8.90;;;;;;;;;;5073497;28;20414;-73
2021/07/16 06:21:16;;;;;;;19.93;11.30;;;;;;;;;;5073759;28;20434;-73
2021/07/16 06:23:42;;;;;;;18.13;9.10;;;;;;;;;;5068559;28;20503;-74
2021/07/16 06:26:08;;;;;;;18.77;9.97;;;;;;;;;;5071044;28;20429;-72
2021/07/16 06:28:34;;;;;;;17.47;10.30;;;;;;;;;;5071930;28;20425;-74
2021/07/16 06:31:00;;;;;;;17.47;9.70;;;;;;;;;;5069812;28;20461;-76
2021/07/16 06:33:26;;;;;;;17.83;10.40;;;;;;;;;;5067141;28;20470;-75
2021/07/16 06:35:52;;;;;;;13.40;9.23;;;;;;;;;;5063136;28;20449;-74
2021/07/16 06:38:18;;;;;;;15.17;8.77;;;;;;;;;;5069805;28;20410;-75
2021/07/16 06:40:44;;;;;;;15.07;8.77;;;;;;;;;;5088544;28;20491;-75
2021/07/16 06:43:10;;;;;;;18.53;9.47;;;;;;;;;;5080444;28;20425;-75
2021/07/16 06:45:37;;;;;;;14.70;8.50;;;;;;;;;;5069738;28;20509;-72
2021/07/16 06:48:05;;;;;;;15.83;8.50;;;;;;;;;;5069160;28;20442;-75
2021/07/16 06:50:31;;;;;;;16.53;9.10;;;;;;;;;;5069492;28;20458;-74
2021/07/16 06:52:57;;;;;;;20.00;10.03;;;;;;;;;;5067694;28;20494;-74
2021/07/16 06:55:23;;;;;;;12.33;8.73;;;;;;;;;;5058151;28;20414;-73
2021/07/16 06:57:49;;;;;;;18.40;8.57;;;;;;;;;;5070495;28;20410;-74
2021/07/16 07:00:15;;;;;;;15.87;8.23;;;;;;;;;;5069043;28;20426;-73
2021/07/16 07:02:41;;;;;;;17.20;7.50;;;;;;;;;;5085861;28;20428;-71
2021/07/16 07:05:08;;;;;;;16.17;8.43;;;;;;;;;;5089439;28;20528;-73
2021/07/16 07:07:34;;;;;;;15.30;8.30;;;;;;;;;;5088971;28;20794;-76
2021/07/16 07:10:00;;;;;;;14.90;7.87;;;;;;;;;;5089554;28;20558;-74
2021/07/16 07:12:26;;;;;;;15.97;7.67;;;;;;;;;;5076380;28;20553;-71
2021/07/16 07:14:53;;;;;;;17.33;8.57;;;;;;;;;;5069279;28;20446;-75
2021/07/16 07:17:20;;;;;;;13.90;7.93;;;;;;;;;;5068745;28;20423;-72
2021/07/16 07:19:46;;;;;;;13.50;7.87;;;;;;;;;;5079957;28;20798;-74
2021/07/16 07:22:12;;;;;;;14.07;8.47;;;;;;;;;;5089003;28;20464;-75
2021/07/16 07:24:38;;;;;;;13.97;7.33;;;;;;;;;;5089333;28;20449;-72
2021/07/16 07:27:04;;;;;;;9.90;7.80;;;;;;;;;;5087428;28;20424;-71
2021/07/16 07:29:33;;;;;;;13.70;7.27;;;;;;;;;;5074277;28;20495;-73
2021/07/16 07:31:59;;;;;;;18.83;7.60;;;;;;;;;;5086888;28;21205;-75
2021/07/16 07:34:25;;;;;;;20.57;8.70;;;;;;;;;;5083728;28;20445;-74
2021/07/16 07:36:52;;;;;;;11.27;7.17;;;;;;;;;;5092500;28;20413;-74
2021/07/16 07:39:18;;;;;;;10.80;8.10;;;;;;;;;;5072901;28;20496;-73
2021/07/16 07:41:47;;;;;;;14.00;7.53;;;;;;;;;;5072844;28;20458;-70
2021/07/16 07:44:14;;;;;;;10.67;6.77;;;;;;;;;;5071450;28;20972;-71
2021/07/16 07:46:40;;;;;;;16.37;7.30;;;;;;;;;;5076924;28;20933;-74
2021/07/16 07:49:07;;;;;;;15.90;7.93;;;;;;;;;;5092924;28;20420;-74
2021/07/16 07:51:34;;;;;;;15.10;8.10;;;;;;;;;;5075811;28;20457;-73
2021/07/16 07:54:00;;;;;;;11.03;7.67;;;;;;;;;;5072143;28;20462;-73
2021/07/16 07:56:26;;;;;;;9.73;6.80;;;;;;;;;;5075091;28;20774;-73
2021/07/16 07:58:53;;;;;;;10.90;6.50;;;;;;;;;;5072331;28;20508;-75
2021/07/16 08:01:19;;;;;;;12.63;6.40;;;;;;;;;;5072431;28;20466;-74
2021/07/16 08:03:45;;;;;;;14.80;7.00;;;;;;;;;;5084095;28;20437;-75
2021/07/16 08:06:11;;;;;;;11.20;6.70;;;;;;;;;;5092604;28;20437;-74
2021/07/16 08:08:37;;;;;;;13.70;7.07;;;;;;;;;;5084801;28;20521;-74
2021/07/16 08:11:03;;;;;;;12.07;6.73;;;;;;;;;;5092635;28;20524;-73
2021/07/16 08:13:29;;;;;;;13.37;6.50;;;;;;;;;;5092524;28;20560;-74
2021/07/16 08:15:56;;;;;;;13.27;6.63;;;;;;;;;;5088498;28;20419;-74
2021/07/16 08:18:22;;;;;;;13.90;6.30;;;;;;;;;;5071556;28;20450;-74
2021/07/16 08:20:48;;;;;;;16.87;7.40;;;;;;;;;;5072124;28;20534;-75
2021/07/16 08:23:14;;;;;;;13.20;6.87;;;;;;;;;;5072135;28;20450;-73
2021/07/16 08:25:40;;;;;;;12.30;6.33;;;;;;;;;;5072269;28;20426;-73
2021/07/16 08:28:06;;;;;;;10.40;6.20;;;;;;;;;;5071590;28;20475;-74
2021/07/16 08:30:33;;;;;;;10.77;6.63;;;;;;;;;;5071524;28;20426;-71
2021/07/16 08:32:59;;;;;;;12.00;6.83;;;;;;;;;;5071896;28;20462;-73
2021/07/16 08:35:25;;;;;;;12.40;6.33;;;;;;;;;;5071771;28;20421;-73
2021/07/16 08:37:51;;;;;;;15.23;7.43;;;;;;;;;;5071670;28;20814;-74
2021/07/16 08:40:17;;;;;;;10.57;6.60;;;;;;;;;;5071655;28;20783;-74
2021/07/16 08:42:46;;;;;;;13.27;6.47;;;;;;;;;;5082453;28;20428;-76
2021/07/16 08:45:13;;;;;;;11.73;6.20;;;;;;;;;;5080556;28;20736;-75
2021/07/16 08:47:39;;;;;;;15.73;6.50;;;;;;;;;;5088953;28;20500;-71
2021/07/16 08:50:07;;;;;;;13.40;6.80;;;;;;;;;;5092082;28;20481;-72
2021/07/16 08:52:33;;;;;;;11.70;6.10;;;;;;;;;;5091740;28;20471;-74
2021/07/16 08:55:01;;;;;;;10.17;5.17;;;;;;;;;;5087005;28;20457;-74
2021/07/16 08:57:28;;;;;;;10.37;5.60;;;;;;;;;;5078036;28;21058;-75
2021/07/16 08:59:54;;;;;;;9.80;5.80;;;;;;;;;;5071316;28;20411;-72
2021/07/16 09:02:25;;;;;;;9.80;6.47;;;;;;;;;;5079651;28;20452;-74
2021/07/16 09:04:57;;;;;;;11.90;6.20;;;;;;;;;;5071570;28;20775;-74
2021/07/16 09:07:23;;;;;;;14.13;6.83;;;;;;;;;;5070983;28;20450;-73
2021/07/16 09:09:49;;;;;;;11.70;6.77;;;;;;;;;;5071222;28;20938;-74
2021/07/16 09:12:15;;;;;;;11.93;6.20;;;;;;;;;;5071236;28;20462;-71
2021/07/16 09:14:41;;;;;;;15.00;6.50;;;;;;;;;;5070856;28;20442;-71
2021/07/16 09:17:11;;;;;;;9.60;6.17;;;;;;;;;;5071024;28;20452;-74
2021/07/16 09:19:39;;;;;;;14.30;6.57;;;;;;;;;;5070856;28;20415;-73
2021/07/16 09:22:05;;;;;;;9.77;5.40;;;;;;;;;;5070997;28;20453;-73
2021/07/16 09:24:31;;;;;;;11.20;7.50;;;;;;;;;;5070935;28;20406;-75
2021/07/16 09:26:58;;;;;;;7.67;5.13;;;;;;;;;;5070756;28;20407;-76
2021/07/16 09:29:28;;;;;;;8.47;5.30;;;;;;;;;;5067533;28;20463;-75
2021/07/16 09:32:01;;;;;;;9.90;5.73;;;;;;;;;;5085750;28;20961;-73
2021/07/16 09:34:27;;;;;;;8.10;5.90;;;;;;;;;;5079693;28;20422;-74
2021/07/16 09:36:53;;;;;;;9.60;6.00;;;;;;;;;;5070632;28;20399;-71
2021/07/16 09:39:24;;;;;;;9.40;5.60;;;;;;;;;;5069191;28;20969;-75
2021/07/16 09:41:51;;;;;;;9.13;5.67;;;;;;;;;;5079680;28;20445;-71
2021/07/16 09:44:30;;;;;;;7.90;5.90;;;;;;;;;;5090944;28;20451;-75
2021/07/16 09:47:16;;;;;;;8.70;5.37;;;;;;;;;;5074104;28;20410;-74
2021/07/16 09:49:42;;;;;;;8.00;5.53;;;;;;;;;;5070458;28;20418;-74
2021/07/16 09:52:13;;;;;;;9.73;5.80;;;;;;;;;;5070076;28;20434;-71
2021/07/16 09:54:59;;;;;;;9.23;6.67;;;;;;;;;;5070333;28;20425;-74
2021/07/16 09:57:39;;;;;;;8.53;6.23;;;;;;;;;;5068996;28;20406;-75
2021/07/16 10:00:15;;;;;;;6.80;5.67;;;;;;;;;;5090427;28;20410;-72
2021/07/16 10:02:52;;;;;;;8.63;6.40;;;;;;;;;;5090480;28;20478;-73
2021/07/16 10:05:18;;;;;;;10.53;6.77;;;;;;;;;;5090101;28;20432;-76
2021/07/16 10:07:45;;;;;;;11.23;6.30;;;;;;;;;;5069373;28;20756;-73
2021/07/16 10:10:13;;;;;;;11.67;5.50;;;;;;;;;;5070038;28;21055;-72
2021/07/16 10:12:43;;;;;;;11.23;6.40;;;;;;;;;;5070242;28;20608;-71
2021/07/16 10:15:11;;;;;;;7.90;5.93;;;;;;;;;;5081877;28;20453;-72
2021/07/16 10:17:37;;;;;;;8.80;5.23;;;;;;;;;;5069330;28;20489;-71
2021/07/16 10:20:04;;;;;;;12.90;5.90;;;;;;;;;;5069885;28;20465;-69
2021/07/16 10:22:30;;;;;;;9.77;5.40;;;;;;;;;;5069410;28;20442;-71
2021/07/16 10:24:56;;;;;;;9.83;5.43;;;;;;;;;;5077974;28;20436;-70
2021/07/16 10:27:22;;;;;;;8.50;4.90;;;;;;;;;;5089407;28;20496;-72
2021/07/16 10:29:48;;;;;;;6.20;5.27;;;;;;;;;;5076723;28;20419;-75
2021/07/16 10:32:33;;;;;;;8.50;5.50;;;;;;;;;;5084719;28;20480;-71
2021/07/16 10:35:13;;;;;;;8.23;4.70;;;;;;;;;;5090223;28;20405;-72
2021/07/16 10:37:39;;;;;;;9.33;5.40;;;;;;;;;;5089772;28;21211;-72
2021/07/16 10:40:05;;;;;;;9.17;5.70;;;;;;;;;;5083225;28;20944;-73
2021/07/16 10:42:34;;;;;;;12.27;7.63;;;;;;;;;;5078826;28;20442;-75
2021/07/16 10:45:03;;;;;;;7.97;4.60;;;;;;;;;;5069533;28;20443;-73
2021/07/16 10:47:33;;;;;;;8.20;5.27;;;;;;;;;;5068645;28;20421;-73
2021/07/16 10:50:00;;;;;;;6.93;4.90;;;;;;;;;;5069578;28;20467;-74
2021/07/16 10:52:45;;;;;;;7.13;4.90;;;;;;;;;;5069074;28;20462;-74
2021/07/16 10:55:11;;;;;;;10.33;5.20;;;;;;;;;;5068750;28;20426;-73
2021/07/16 10:57:41;;;;;;;8.03;4.93;;;;;;;;;;5068750;28;20410;-75
2021/07/16 11:00:09;;;;;;;8.77;5.10;;;;;;;;;;5069163;28;20414;-73
2021/07/16 11:02:48;;;;;;;9.07;4.90;;;;;;;;;;5069100;28;20799;-72
2021/07/16 11:05:32;;;;;;;5.60;4.70;;;;;;;;;;5069019;28;20438;-72
2021/07/16 11:08:01;;;;;;;7.50;5.37;;;;;;;;;;5068878;28;20936;-73
2021/07/16 11:10:47;;;;;;;9.13;4.60;;;;;;;;;;5068761;28;21120;-72
2021/07/16 11:13:31;;;;;;;10.23;4.97;;;;;;;;;;5069067;28;20469;-73
2021/07/16 11:15:57;;;;;;;7.10;4.83;;;;;;;;;;5069197;28;20802;-74
2021/07/16 11:18:27;;;;;;;13.60;6.00;;;;;;;;;;5068753;28;20417;-74
2021/07/16 11:20:54;;;;;;;7.27;5.33;;;;;;;;;;5069058;28;20442;-73
2021/07/16 11:23:21;;;;;;;10.03;5.07;;;;;;;;;;5077299;28;20429;-72
2021/07/16 11:25:47;;;;;;;7.50;5.17;;;;;;;;;;5089105;28;20445;-73
2021/07/16 11:28:13;;;;;;;8.47;5.00;;;;;;;;;;5085470;28;20418;-72
2021/07/16 11:30:43;;;;;;;10.50;6.00;;;;;;;;;;5073861;28;20442;-73
2021/07/16 11:33:10;;;;;;;9.40;5.60;;;;;;;;;;5089126;28;20809;-74
2021/07/16 11:35:37;;;;;;;16.00;5.27;;;;;;;;;;5078540;28;20431;-72
2021/07/16 11:38:07;;;;;;;7.50;5.10;;;;;;;;;;5068682;28;20464;-73
2021/07/16 11:40:34;;;;;;;8.37;5.47;;;;;;;;;;5068689;28;20829;-76
2021/07/16 11:43:02;;;;;;;9.67;5.10;;;;;;;;;;5068998;28;20441;-75
2021/07/16 11:45:29;;;;;;;8.20;5.97;;;;;;;;;;5068959;28;20417;-72
2021/07/16 11:47:56;;;;;;;7.70;5.17;;;;;;;;;;5068601;28;20425;-76
2021/07/16 11:50:22;;;;;;;9.47;5.17;;;;;;;;;;5073167;28;20774;-74
2021/07/16 11:52:50;;;;;;;9.10;4.80;;;;;;;;;;5088955;28;20496;-74
2021/07/16 11:55:18;;;;;;;7.80;4.77;;;;;;;;;;5081871;28;20738;-73
2021/07/16 11:57:56;;;;;;;7.40;5.40;;;;;;;;;;5068368;28;20407;-71
2021/07/16 12:00:23;;;;;;;9.80;5.50;;;;;;;;;;5068572;28;20417;-74
2021/07/16 12:02:50;;;;;;;7.43;5.03;;;;;;;;;;5069021;28;20429;-72
2021/07/16 12:05:18;;;;;;;9.20;5.20;;;;;;;;;;5080284;28;20438;-74
2021/07/16 12:07:47;;;;;;;8.63;4.83;;;;;;;;;;5070500;28;20427;-72
2021/07/16 12:10:14;;;;;;;8.30;5.40;;;;;;;;;;5068627;28;20929;-75
2021/07/16 12:12:40;;;;;;;11.20;6.10;;;;;;;;;;5068424;28;20575;-74
2021/07/16 12:15:08;;;;;;;6.93;4.67;;;;;;;;;;5068639;28;20415;-75
2021/07/16 12:17:35;;;;;;;6.83;5.80;;;;;;;;;;5066717;28;20433;-71
2021/07/16 12:20:03;;;;;;;10.87;5.90;;;;;;;;;;5068522;28;20417;-74
2021/07/16 12:22:30;;;;;;;8.83;5.00;;;;;;;;;;5069670;28;20438;-74
2021/07/16 12:24:57;;;;;;;7.33;5.53;;;;;;;;;;5072231;28;20406;-73
2021/07/16 12:27:23;;;;;;;10.03;6.30;;;;;;;;;;5071509;28;20418;-73
2021/07/16 12:29:57;;;;;;;10.10;5.10;;;;;;;;;;5068329;28;20923;-73
2021/07/16 12:32:36;;;;;;;7.27;4.67;;;;;;;;;;5088332;28;20468;-74
2021/07/16 12:35:32;;;;;;;9.07;4.90;;;;;;;;;;5092218;28;20492;-72
2021/07/16 12:38:02;;;;;;;8.70;6.27;;;;;;;;;;5086909;28;20417;-74
2021/07/16 12:40:29;;;;;;;8.27;5.27;;;;;;;;;;5089853;28;20495;-72
2021/07/16 12:43:09;;;;;;;11.60;5.37;;;;;;;;;;5092111;28;20416;-72
2021/07/16 12:45:42;;;;;;;8.83;5.80;;;;;;;;;;5086962;28;20415;-72
2021/07/16 12:48:10;;;;;;;7.93;5.27;;;;;;;;;;5071616;28;20414;-74
2021/07/16 12:50:36;;;;;;;8.30;5.20;;;;;;;;;;5071752;28;20839;-75
2021/07/16 12:53:02;;;;;;;9.70;5.17;;;;;;;;;;5071733;28;20910;-74
2021/07/16 12:55:32;;;;;;;8.43;4.70;;;;;;;;;;5072612;28;21062;-72
2021/07/16 12:58:00;;;;;;;11.90;5.60;;;;;;;;;;5085312;28;20416;-75
2021/07/16 13:00:26;;;;;;;9.87;5.17;;;;;;;;;;5092054;28;20509;-76
2021/07/16 13:02:52;;;;;;;9.93;4.80;;;;;;;;;;5091802;28;20424;-70
2021/07/16 13:05:33;;;;;;;9.57;5.67;;;;;;;;;;5091629;28;20475;-71
2021/07/16 13:08:20;;;;;;;10.20;5.40;;;;;;;;;;5091105;28;20436;-74
2021/07/16 13:10:47;;;;;;;13.10;5.73;;;;;;;;;;5091562;28;20782;-73
2021/07/16 13:13:16;;;;;;;8.80;6.07;;;;;;;;;;5088817;28;20568;-72
2021/07/16 13:15:42;;;;;;;12.23;6.53;;;;;;;;;;5091572;28;20452;-75
2021/07/16 13:18:09;;;;;;;9.13;5.53;;;;;;;;;;5085805;28;20411;-73
2021/07/16 13:20:35;;;;;;;12.23;5.30;;;;;;;;;;5070995;28;20418;-75
2021/07/16 13:23:01;;;;;;;9.10;6.27;;;;;;;;;;5071106;28;20817;-73
2021/07/16 13:25:27;;;;;;;9.37;5.60;;;;;;;;;;5071088;28;20778;-75
2021/07/16 13:27:53;;;;;;;10.20;6.00;;;;;;;;;;5070237;28;20957;-72
2021/07/16 13:30:19;;;;;;;12.47;7.50;;;;;;;;;;5074715;28;20414;-71
2021/07/16 13:32:45;;;;;;;7.47;5.73;;;;;;;;;;5089904;28;20468;-73
2021/07/16 13:35:12;;;;;;;13.20;6.63;;;;;;;;;;5090998;28;20405;-75
2021/07/16 13:37:38;;;;;;;13.57;6.20;;;;;;;;;;5089971;28;20425;-73
2021/07/16 13:40:05;;;;;;;10.93;6.50;;;;;;;;;;5091071;28;20418;-72
2021/07/16 13:42:31;;;;;;;10.70;5.47;;;;;;;;;;5089239;28;20538;-73
2021/07/16 13:44:57;;;;;;;10.83;6.50;;;;;;;;;;5089519;28;20475;-74
2021/07/16 13:47:24;;;;;;;8.67;6.30;;;;;;;;;;5069895;28;20506;-74
2021/07/16 13:49:50;;;;;;;13.33;6.60;;;;;;;;;;5070600;28;20509;-73
2021/07/16 13:52:16;;;;;;;10.57;6.40;;;;;;;;;;5070347;28;20905;-71
2021/07/16 13:54:42;;;;;;;13.23;7.13;;;;;;;;;;5070314;28;20497;-70
2021/07/16 13:57:08;;;;;;;13.37;7.30;;;;;;;;;;5077407;28;20500;-73
2021/07/16 13:59:34;;;;;;;10.37;6.90;;;;;;;;;;5090542;28;20888;-74
2021/07/16 14:02:00;;;;;;;12.53;7.07;;;;;;;;;;5090353;28;20483;-73
2021/07/16 14:04:27;;;;;;;11.27;7.23;;;;;;;;;;5080876;28;20422;-72
2021/07/16 14:06:53;;;;;;;9.10;6.23;;;;;;;;;;5089557;28;20445;-73
2021/07/16 14:09:19;;;;;;;7.80;6.00;;;;;;;;;;5090415;28;20508;-74
2021/07/16 14:11:45;;;;;;;9.87;5.87;;;;;;;;;;5090227;28;20844;-75
2021/07/16 14:14:11;;;;;;;8.90;6.30;;;;;;;;;;5090139;28;20469;-74
2021/07/16 14:16:37;;;;;;;11.70;6.23;;;;;;;;;;5090335;28;20414;-72
2021/07/16 14:19:04;;;;;;;10.50;6.33;;;;;;;;;;5080810;28;20421;-73
2021/07/16 14:21:31;;;;;;;11.37;6.00;;;;;;;;;;5059829;28;20437;-76
2021/07/16 14:23:57;;;;;;;11.03;6.90;;;;;;;;;;5069948;28;20430;-74
2021/07/16 14:26:24;;;;;;;11.50;6.40;;;;;;;;;;5069767;28;20414;-76
2021/07/16 14:28:50;;;;;;;8.30;6.40;;;;;;;;;;5069212;28;20472;-75
2021/07/16 14:31:16;;;;;;;8.07;5.67;;;;;;;;;;5069519;28;20438;-75
2021/07/16 14:33:42;;;;;;;11.20;6.80;;;;;;;;;;5069460;28;21259;-73